createdAt,value
2023-02-27T00:02:34.662Z,42.94
2023-02-27T00:05:37.602Z,43.10
2023-02-27T00:08:40.736Z,43.00
2023-02-27T00:11:45.210Z,42.99
2023-02-27T00:14:48.249Z,42.90
2023-02-27T00:17:51.383Z,42.89
2023-02-27T00:20:54.940Z,42.88
2023-02-27T00:23:58.086Z,42.83
2023-02-27T00:27:02.510Z,42.84
2023-02-27T00:30:06.451Z,42.83
2023-02-27T00:33:09.485Z,42.82
2023-02-27T00:36:12.468Z,42.79
2023-02-27T00:39:16.237Z,42.77
2023-02-27T00:42:20.601Z,42.83
2023-02-27T00:45:23.601Z,42.85
2023-02-27T00:48:26.587Z,42.97
2023-02-27T00:51:29.645Z,43.01
2023-02-27T00:54:32.923Z,43.01
2023-02-27T00:57:37.745Z,42.91
2023-02-27T01:00:40.763Z,42.83
2023-02-27T01:03:43.924Z,42.96
2023-02-27T01:06:47.008Z,42.87
2023-02-27T01:09:50.075Z,42.87
2023-02-27T01:12:54.509Z,42.83
2023-02-27T01:15:57.498Z,42.70
2023-02-27T01:19:00.649Z,42.81
2023-02-27T01:22:03.624Z,42.85
2023-02-27T01:25:07.396Z,42.84
2023-02-27T01:28:11.868Z,42.97
2023-02-27T01:31:15.390Z,42.91
2023-02-27T01:34:18.656Z,43.03
2023-02-27T01:37:21.645Z,42.91
2023-02-27T01:40:24.743Z,42.82
2023-02-27T01:43:29.125Z,42.86
2023-02-27T01:46:33.464Z,42.73
2023-02-27T01:49:36.562Z,42.74
2023-02-27T01:52:42.297Z,42.80
2023-02-27T01:55:47.285Z,42.77
2023-02-27T01:58:55.393Z,42.75
2023-02-27T02:02:02.444Z,42.82
2023-02-27T02:05:09.146Z,42.76
2023-02-27T02:08:15.189Z,42.92
2023-02-27T02:11:20.463Z,42.87
2023-02-27T02:14:25.373Z,42.84
2023-02-27T02:17:40.330Z,42.93
2023-02-27T02:21:04.081Z,42.84
2023-02-27T02:24:43.465Z,42.92
2023-02-27T02:28:02.883Z,42.66
2023-02-27T02:31:49.736Z,42.80
2023-02-27T02:35:32.799Z,42.81
2023-02-27T02:39:00.298Z,42.81
2023-02-27T02:42:11.154Z,42.88
2023-02-27T02:45:18.950Z,42.93
2023-02-27T02:48:28.613Z,43.03
2023-02-27T02:51:36.154Z,43.16
2023-02-27T02:54:44.688Z,43.09
2023-02-27T02:57:54.345Z,43.21
2023-02-27T03:01:04.748Z,43.27
2023-02-27T03:04:13.917Z,43.23
2023-02-27T03:07:24.962Z,43.19
2023-02-27T03:10:34.526Z,43.18
2023-02-27T03:13:43.186Z,43.09
2023-02-27T03:16:49.778Z,43.17
2023-02-27T03:19:58.170Z,43.26
2023-02-27T03:23:06.520Z,43.16
2023-02-27T03:26:13.435Z,43.33
2023-02-27T03:29:23.761Z,43.33
2023-02-27T03:32:32.237Z,43.31
2023-02-27T03:35:45.104Z,43.27
2023-02-27T03:38:55.797Z,43.38
2023-02-27T03:42:07.228Z,43.31
2023-02-27T03:45:41.298Z,43.26
2023-02-27T03:48:45.041Z,43.32
2023-02-27T03:51:48.179Z,43.26
2023-02-27T03:54:57.438Z,43.26
2023-02-27T03:58:02.164Z,43.22
2023-02-27T04:01:05.661Z,43.15
2023-02-27T04:04:14.556Z,43.06
2023-02-27T04:07:44.600Z,43.08
2023-02-27T04:11:07.776Z,43.17
2023-02-27T04:14:33.070Z,43.31
2023-02-27T04:17:44.625Z,43.34
2023-02-27T04:20:55.496Z,43.26
2023-02-27T04:24:07.505Z,43.32
2023-02-27T04:27:21.564Z,43.28
2023-02-27T04:30:31.276Z,43.29
2023-02-27T04:33:44.520Z,43.36
2023-02-27T04:36:51.585Z,43.27
2023-02-27T04:39:59.115Z,43.36
2023-02-27T04:43:05.701Z,43.20
2023-02-27T04:46:14.214Z,43.26
2023-02-27T04:49:21.294Z,43.34
2023-02-27T04:52:30.079Z,43.27
2023-02-27T04:55:37.245Z,43.24
2023-02-27T04:58:46.354Z,43.34
2023-02-27T05:01:58.794Z,43.34
2023-02-27T05:05:07.413Z,43.24
2023-02-27T05:08:15.551Z,43.26
2023-02-27T05:11:26.694Z,43.23
2023-02-27T05:14:34.908Z,43.31
2023-02-27T05:17:46.146Z,43.25
2023-02-27T05:20:57.424Z,43.31
2023-02-27T05:24:12.581Z,43.31
2023-02-27T05:27:23.838Z,43.36
2023-02-27T05:30:31.960Z,43.22
2023-02-27T05:33:39.382Z,43.21
2023-02-27T05:36:47.088Z,43.33
2023-02-27T05:39:51.953Z,43.25
2023-02-27T05:43:01.939Z,43.31
2023-02-27T05:46:09.838Z,43.33
2023-02-27T05:49:18.126Z,43.27
2023-02-27T05:52:24.890Z,43.17
2023-02-27T05:55:33.811Z,43.15
2023-02-27T05:58:41.882Z,43.17
2023-02-27T06:01:46.411Z,43.09
2023-02-27T06:04:51.126Z,43.06
2023-02-27T06:07:54.037Z,43.13
2023-02-27T06:10:57.038Z,43.13
2023-02-27T06:14:00.047Z,43.07
2023-02-27T06:17:03.558Z,43.21
2023-02-27T06:20:09.922Z,43.34
2023-02-27T06:23:13.766Z,43.30
2023-02-27T06:26:16.730Z,43.36
2023-02-27T06:29:19.744Z,43.21
2023-02-27T06:32:25.233Z,43.29
2023-02-27T06:35:30.814Z,43.38
2023-02-27T06:38:34.215Z,43.33
2023-02-27T06:41:37.241Z,43.37
2023-02-27T06:44:40.309Z,43.37
2023-02-27T06:47:44.466Z,43.35
2023-02-27T06:50:52.766Z,43.34
2023-02-27T06:53:55.759Z,43.31
2023-02-27T06:56:58.701Z,43.38
2023-02-27T07:00:01.802Z,43.37
2023-02-27T07:03:05.114Z,43.40
2023-02-27T07:06:09.556Z,43.48
2023-02-27T07:09:12.503Z,43.36
2023-02-27T07:12:15.669Z,43.36
2023-02-27T07:15:18.841Z,43.36
2023-02-27T07:18:21.821Z,43.41
2023-02-27T07:21:26.222Z,43.39
2023-02-27T07:24:29.220Z,43.34
2023-02-27T07:27:32.407Z,43.41
2023-02-27T07:30:35.449Z,43.34
2023-02-27T07:33:38.472Z,43.34
2023-02-27T07:36:43.430Z,43.26
2023-02-27T07:39:46.510Z,43.45
2023-02-27T07:42:52.728Z,43.59
2023-02-27T07:45:56.070Z,43.33
2023-02-27T07:48:59.092Z,43.35
2023-02-27T07:52:03.606Z,43.47
2023-02-27T07:55:07.909Z,43.48
2023-02-27T07:58:10.933Z,43.54
2023-02-27T08:01:13.930Z,43.59
2023-02-27T08:04:16.976Z,43.69
2023-02-27T08:07:21.380Z,43.65
2023-02-27T08:10:24.923Z,43.61
2023-02-27T08:13:59.011Z,43.71
2023-02-27T08:16:51.519Z,43.77
2023-02-27T08:19:54.520Z,43.80
2023-02-27T08:22:58.993Z,43.74
2023-02-27T08:26:02.277Z,42.80
2023-02-27T08:29:05.295Z,41.70
2023-02-27T08:32:09.488Z,40.37
2023-02-27T08:35:13.009Z,39.86
2023-02-27T08:38:17.516Z,38.33
2023-02-27T08:41:20.638Z,38.36
2023-02-27T08:44:23.697Z,38.85
2023-02-27T08:47:26.714Z,39.30
2023-02-27T08:50:29.798Z,39.47
2023-02-27T08:53:34.158Z,39.36
2023-02-27T08:56:37.177Z,39.40
2023-02-27T08:59:40.226Z,39.41
2023-02-27T09:02:43.304Z,39.46
2023-02-27T09:05:46.381Z,39.47
2023-02-27T09:08:50.745Z,39.53
2023-02-27T09:11:54.046Z,39.61
2023-02-27T09:14:57.064Z,39.82
2023-02-27T09:18:03.961Z,39.99
2023-02-27T09:21:07.234Z,40.23
2023-02-27T09:24:19.590Z,40.43
2023-02-27T09:27:24.338Z,40.38
2023-02-27T09:30:27.644Z,40.38
2023-02-27T09:33:31.400Z,40.50
2023-02-27T09:36:34.996Z,40.71
2023-02-27T09:39:39.432Z,41.05
2023-02-27T09:42:46.568Z,41.23
2023-02-27T09:45:54.399Z,41.44
2023-02-27T09:49:00.287Z,41.46
2023-02-27T09:52:03.791Z,41.58
2023-02-27T09:55:16.470Z,41.74
2023-02-27T09:58:33.120Z,41.90
2023-02-27T10:01:41.365Z,41.93
2023-02-27T10:04:54.497Z,42.02
2023-02-27T10:08:03.928Z,42.29
2023-02-27T10:11:10.810Z,42.17
2023-02-27T10:14:29.528Z,41.92
2023-02-27T10:17:37.397Z,41.64
2023-02-27T10:20:44.772Z,41.27
2023-02-27T10:23:54.020Z,40.89
2023-02-27T10:27:00.561Z,40.56
2023-02-27T10:30:28.535Z,40.50
2023-02-27T10:33:36.647Z,40.89
2023-02-27T10:36:41.079Z,41.29
2023-02-27T10:39:48.658Z,41.52
2023-02-27T10:42:54.348Z,41.67
2023-02-27T10:45:58.004Z,41.84
2023-02-27T10:49:05.497Z,41.84
2023-02-27T10:52:11.141Z,41.86
2023-02-27T10:55:20.212Z,42.03
2023-02-27T10:58:25.385Z,42.00
2023-02-27T11:01:43.599Z,42.21
2023-02-27T11:04:53.770Z,42.15
2023-02-27T11:08:10.745Z,42.00
2023-02-27T11:11:13.807Z,42.23
2023-02-27T11:14:27.891Z,42.23
2023-02-27T11:17:32.870Z,42.33
2023-02-27T11:20:39.786Z,42.42
2023-02-27T11:23:52.326Z,42.51
2023-02-27T11:26:57.542Z,42.63
2023-02-27T11:30:03.902Z,42.71
2023-02-27T11:33:19.022Z,42.90
2023-02-27T11:36:23.641Z,42.82
2023-02-27T11:39:31.079Z,42.94
2023-02-27T11:42:37.385Z,43.08
2023-02-27T11:46:16.007Z,42.96
2023-02-27T11:49:22.519Z,42.94
2023-02-27T11:52:32.733Z,43.01
2023-02-27T11:55:37.101Z,43.03
2023-02-27T11:58:45.480Z,43.14
2023-02-27T12:01:54.413Z,43.10
2023-02-27T12:05:02.306Z,43.08
2023-02-27T12:08:11.586Z,43.18
2023-02-27T12:11:21.687Z,43.15
2023-02-27T12:14:31.772Z,43.06
2023-02-27T12:17:41.994Z,43.29
2023-02-27T12:20:53.058Z,43.48
2023-02-27T12:23:59.914Z,43.62
2023-02-27T12:27:16.125Z,43.59
2023-02-27T12:30:22.283Z,43.64
2023-02-27T12:33:37.327Z,43.62
2023-02-27T12:36:40.419Z,43.74
2023-02-27T12:39:45.759Z,43.69
2023-02-27T12:43:09.452Z,43.64
2023-02-27T12:46:27.009Z,43.76
2023-02-27T12:49:42.695Z,43.87
2023-02-27T12:52:58.963Z,44.01
2023-02-27T12:56:07.358Z,44.01
2023-02-27T12:59:24.013Z,44.09
2023-02-27T13:02:41.158Z,44.09
2023-02-27T13:05:53.157Z,44.02
2023-02-27T13:09:11.395Z,44.04
2023-02-27T13:12:24.425Z,44.02
2023-02-27T13:15:35.086Z,44.11
2023-02-27T13:18:43.439Z,44.10
2023-02-27T13:21:54.424Z,44.04
2023-02-27T13:25:00.881Z,44.06
2023-02-27T13:28:08.845Z,43.96
2023-02-27T13:31:21.265Z,44.06
2023-02-27T13:34:31.603Z,44.02
2023-02-27T13:37:53.847Z,43.98
2023-02-27T13:40:56.921Z,43.99
2023-02-27T13:44:01.346Z,44.05
2023-02-27T13:47:52.193Z,43.96
2023-02-27T13:50:55.188Z,43.98
2023-02-27T13:54:22.910Z,43.99
2023-02-27T13:57:27.809Z,44.11
2023-02-27T14:00:32.565Z,44.07
2023-02-27T14:03:35.744Z,44.02
2023-02-27T14:06:45.338Z,44.09
2023-02-27T14:09:53.032Z,44.04
2023-02-27T14:12:57.553Z,44.02
2023-02-27T14:16:00.947Z,44.06
2023-02-27T14:19:04.961Z,43.99
2023-02-27T14:22:37.321Z,43.97
2023-02-27T14:25:46.564Z,44.08
2023-02-27T14:28:55.761Z,43.97
2023-02-27T14:32:01.609Z,44.10
2023-02-27T14:35:07.461Z,43.99
2023-02-27T14:38:12.912Z,44.06
2023-02-27T14:41:39.969Z,44.02
2023-02-27T14:44:46.744Z,44.05
2023-02-27T14:47:50.718Z,43.98
2023-02-27T14:50:57.962Z,43.97
2023-02-27T14:54:03.435Z,44.03
2023-02-27T14:57:08.332Z,43.98
2023-02-27T15:00:38.050Z,44.01
2023-02-27T15:03:46.413Z,44.02
2023-02-27T15:06:52.235Z,43.96
2023-02-27T15:09:57.287Z,44.02
2023-02-27T15:13:02.797Z,43.98
2023-02-27T15:16:34.144Z,44.06
2023-02-27T15:19:37.560Z,44.05
2023-02-27T15:22:40.885Z,44.03
2023-02-27T15:25:44.033Z,44.07
2023-02-27T15:28:50.173Z,44.01
2023-02-27T15:31:54.444Z,44.02
2023-02-27T15:34:58.927Z,43.96
2023-02-27T15:38:02.636Z,43.98
2023-02-27T15:41:06.141Z,44.21
2023-02-27T15:44:14.204Z,44.12
2023-02-27T15:47:23.197Z,44.12
2023-02-27T15:50:29.963Z,44.24
2023-02-27T15:53:34.086Z,44.17
2023-02-27T15:56:39.702Z,44.17
2023-02-27T15:59:44.730Z,44.24
2023-02-27T16:02:51.128Z,44.25
2023-02-27T16:05:54.410Z,44.20
2023-02-27T16:09:00.275Z,44.22
2023-02-27T16:12:22.125Z,44.26
2023-02-27T16:15:30.969Z,44.29
2023-02-27T16:18:37.248Z,44.25
2023-02-27T16:21:42.275Z,44.29
2023-02-27T16:24:46.022Z,44.28
2023-02-27T16:27:51.323Z,44.48
2023-02-27T16:30:55.814Z,44.28
2023-02-27T16:34:01.644Z,44.35
2023-02-27T16:37:06.973Z,44.25
2023-02-27T16:40:15.154Z,44.28
2023-02-27T16:43:18.252Z,44.18
2023-02-27T16:46:23.726Z,44.16
2023-02-27T16:49:29.110Z,44.27
2023-02-27T16:52:32.167Z,44.23
2023-02-27T16:55:35.494Z,44.27
2023-02-27T16:58:38.475Z,44.24
2023-02-27T17:01:43.698Z,44.24
2023-02-27T17:04:47.988Z,44.18
2023-02-27T17:07:51.037Z,44.16
2023-02-27T17:10:54.204Z,44.10
2023-02-27T17:13:57.257Z,43.98
2023-02-27T17:17:01.716Z,44.00
2023-02-27T17:20:07.258Z,43.75
2023-02-27T17:23:12.892Z,43.62
2023-02-27T17:26:17.422Z,43.70
2023-02-27T17:29:20.661Z,43.84
2023-02-27T17:32:25.080Z,44.08
2023-02-27T17:35:30.200Z,44.05
2023-02-27T17:38:33.795Z,44.07
2023-02-27T17:41:36.840Z,44.03
2023-02-27T17:44:40.327Z,44.17
2023-02-27T17:47:44.807Z,44.19
2023-02-27T17:50:47.749Z,44.12
2023-02-27T17:53:50.709Z,44.15
2023-02-27T17:56:53.691Z,44.19
2023-02-27T17:59:56.793Z,44.20
2023-02-27T18:03:01.840Z,44.24
2023-02-27T18:06:05.565Z,44.23
2023-02-27T18:09:08.528Z,44.17
2023-02-27T18:12:11.453Z,44.25
2023-02-27T18:15:14.548Z,44.22
2023-02-27T18:18:19.798Z,44.27
2023-02-27T18:21:24.565Z,44.24
2023-02-27T18:24:28.206Z,44.27
2023-02-27T18:27:31.339Z,44.25
2023-02-27T18:30:38.231Z,44.24
2023-02-27T18:33:44.350Z,44.25
2023-02-27T18:36:48.053Z,44.22
2023-02-27T18:39:51.125Z,44.16
2023-02-27T18:42:54.148Z,44.07
2023-02-27T18:45:57.666Z,44.12
2023-02-27T18:49:02.348Z,44.00
2023-02-27T18:52:05.301Z,44.23
2023-02-27T18:55:08.965Z,44.04
2023-02-27T18:58:11.987Z,44.09
2023-02-27T19:01:25.681Z,44.02
2023-02-27T19:04:33.132Z,44.03
2023-02-27T19:07:36.398Z,44.06
2023-02-27T19:10:39.621Z,44.05
2023-02-27T19:13:42.657Z,44.11
2023-02-27T19:16:46.378Z,44.15
2023-02-27T19:19:50.774Z,44.37
2023-02-27T19:22:54.313Z,44.37
2023-02-27T19:26:00.575Z,44.51
2023-02-27T19:29:03.991Z,44.45
2023-02-27T19:32:08.463Z,44.50
2023-02-27T19:35:15.232Z,44.54
2023-02-27T19:38:18.337Z,44.54
2023-02-27T19:41:22.633Z,44.69
2023-02-27T19:44:26.523Z,44.63
2023-02-27T19:47:29.594Z,44.74
2023-02-27T19:50:34.534Z,44.64
2023-02-27T19:53:39.745Z,44.72
2023-02-27T19:56:43.599Z,44.74
2023-02-27T19:59:46.844Z,44.73
2023-02-27T20:02:49.870Z,44.79
2023-02-27T20:05:54.364Z,44.82
2023-02-27T20:08:59.301Z,44.97
2023-02-27T20:12:02.398Z,44.85
2023-02-27T20:15:09.902Z,44.98
2023-02-27T20:18:12.878Z,44.78
2023-02-27T20:21:19.721Z,44.73
2023-02-27T20:24:24.526Z,44.65
2023-02-27T20:27:28.356Z,44.62
2023-02-27T20:30:31.421Z,44.61
2023-02-27T20:33:34.420Z,44.69
2023-02-27T20:36:39.541Z,44.76
2023-02-27T20:39:45.151Z,44.95
2023-02-27T20:42:48.143Z,45.00
2023-02-27T20:45:51.534Z,45.08
2023-02-27T20:48:56.892Z,45.14
2023-02-27T20:52:01.258Z,45.07
2023-02-27T20:55:04.486Z,45.04
2023-02-27T20:58:07.516Z,44.98
2023-02-27T21:01:11.682Z,44.91
2023-02-27T21:04:14.833Z,44.94
2023-02-27T21:07:22.596Z,44.90
2023-02-27T21:10:25.699Z,44.94
2023-02-27T21:13:28.686Z,44.84
2023-02-27T21:16:31.699Z,44.81
2023-02-27T21:19:34.897Z,44.93
2023-02-27T21:22:39.325Z,44.90
2023-02-27T21:25:42.864Z,44.80
2023-02-27T21:28:47.836Z,44.77
2023-02-27T21:31:52.342Z,44.88
2023-02-27T21:34:55.349Z,44.84
2023-02-27T21:37:59.853Z,45.05
2023-02-27T21:41:06.986Z,44.87
2023-02-27T21:44:12.391Z,44.84
2023-02-27T21:47:15.425Z,44.82
2023-02-27T21:50:21.761Z,44.90
2023-02-27T21:53:26.409Z,44.83
2023-02-27T21:56:30.829Z,44.87
2023-02-27T21:59:34.213Z,44.94
2023-02-27T22:02:37.254Z,44.97
2023-02-27T22:05:41.689Z,44.87
2023-02-27T22:08:46.139Z,45.03
2023-02-27T22:11:49.385Z,45.03
2023-02-27T22:14:52.446Z,45.04
2023-02-27T22:17:55.603Z,44.94
2023-02-27T22:20:58.569Z,45.00
2023-02-27T22:24:03.639Z,45.04
2023-02-27T22:27:06.615Z,44.99
2023-02-27T22:30:11.019Z,45.04
2023-02-27T22:33:13.990Z,44.95
2023-02-27T22:36:19.380Z,44.93
2023-02-27T22:39:23.925Z,45.04
2023-02-27T22:42:27.062Z,45.00
2023-02-27T22:45:30.064Z,44.99
2023-02-27T22:48:33.200Z,44.97
2023-02-27T22:51:36.419Z,44.89
2023-02-27T22:54:40.828Z,44.97
2023-02-27T22:57:43.910Z,45.01
2023-02-27T23:00:47.071Z,44.96
2023-02-27T23:03:51.742Z,45.00
2023-02-27T23:06:55.974Z,44.95
2023-02-27T23:10:00.309Z,44.93
2023-02-27T23:13:03.293Z,45.00
2023-02-27T23:16:11.507Z,44.73
2023-02-27T23:19:16.297Z,44.26
2023-02-27T23:22:19.459Z,43.95
2023-02-27T23:25:24.182Z,43.96
2023-02-27T23:28:27.283Z,43.99
2023-02-27T23:31:32.250Z,43.96
2023-02-27T23:34:48.941Z,43.77
2023-02-27T23:37:53.044Z,43.72
2023-02-27T23:40:57.829Z,43.73
2023-02-27T23:44:18.245Z,43.75
2023-02-27T23:47:38.579Z,43.69
2023-02-27T23:50:44.140Z,43.86
2023-02-27T23:53:47.080Z,43.96
2023-02-27T23:56:51.437Z,43.91
2023-02-27T23:59:54.416Z,43.91
